Addison Township, Michigan
Current Conditions -  °F | °C
As of 11:13 AM on Thursday 18 Dec 2014 (Local Time) from KD95 Reporting Station
Unknown Precip Unknown Precip  
Wind Chill: -2°   Ceiling: 600
Heat Index: -2°   Visibility: 2.5mi
Dew Point: -3°   Wind: 3mph
Humidity: 95%   Direction: 360°N
Pressure: 30.2"   Gusts: NA
Location:  42.8434°N, 83.1398°W
Report Text: KD95 181613Z AUTO 36003KT 2 1/2SM UP OVC006 M02/M02 A3020 RMK AO2 T10181025
Loading
Personal Weather Stations






























Interactive Weather Map New forecast layout! Learn more

10-Day Weather Forecast

Advertisements
Track Severe Weather on mobile